createdAt,value
2018-12-08T00:02:19.640Z,53.20
2018-12-08T00:07:22.849Z,53.20
2018-12-08T00:12:26.088Z,53.30
2018-12-08T00:17:29.341Z,53.50
2018-12-08T00:22:32.591Z,53.50
2018-12-08T00:27:35.859Z,53.70
2018-12-08T00:32:39.046Z,53.60
2018-12-08T00:37:42.207Z,53.80
2018-12-08T00:42:45.433Z,53.80
2018-12-08T00:47:48.661Z,54.20
2018-12-08T00:52:52.246Z,54.00
2018-12-08T00:57:55.649Z,54.10
2018-12-08T01:02:58.851Z,54.20
2018-12-08T01:08:02.171Z,54.20
2018-12-08T01:13:05.383Z,54.30
2018-12-08T01:18:08.581Z,54.40
2018-12-08T01:23:11.778Z,54.30
2018-12-08T01:28:15.077Z,54.20
2018-12-08T01:33:18.263Z,54.30
2018-12-08T01:38:21.504Z,54.50
2018-12-08T01:43:24.717Z,54.70
2018-12-08T01:48:27.894Z,54.50
2018-12-08T01:53:31.108Z,54.70
2018-12-08T01:58:34.583Z,54.90
2018-12-08T02:03:37.755Z,54.80
2018-12-08T02:08:40.961Z,54.90
2018-12-08T02:13:44.139Z,54.70
2018-12-08T02:18:47.333Z,54.80
2018-12-08T02:23:50.533Z,55.00
2018-12-08T02:28:53.736Z,54.90
2018-12-08T02:33:56.917Z,55.00
2018-12-08T02:39:00.127Z,54.80
2018-12-08T02:44:03.303Z,54.90
2018-12-08T02:49:06.491Z,54.90
2018-12-08T02:54:09.678Z,55.00
2018-12-08T02:59:13.023Z,55.00
2018-12-08T03:04:16.235Z,55.00
2018-12-08T03:09:19.450Z,55.10
2018-12-08T03:14:22.598Z,55.00
2018-12-08T03:19:25.825Z,55.10
2018-12-08T03:24:29.033Z,55.10
2018-12-08T03:29:32.217Z,55.20
2018-12-08T03:34:35.418Z,55.40
2018-12-08T03:39:38.625Z,55.20
2018-12-08T03:44:42.125Z,55.20
2018-12-08T03:49:45.472Z,55.10
2018-12-08T03:54:48.675Z,55.20
2018-12-08T03:59:51.862Z,55.30
2018-12-08T04:04:55.080Z,55.30
2018-12-08T04:09:58.334Z,55.30
2018-12-08T04:15:01.750Z,55.20
2018-12-08T04:20:05.173Z,55.20
2018-12-08T04:25:08.384Z,55.10
2018-12-08T04:30:11.789Z,55.40
2018-12-08T04:35:14.959Z,55.60
2018-12-08T04:40:18.189Z,55.40
2018-12-08T04:45:21.347Z,55.40
2018-12-08T04:50:24.511Z,55.60
2018-12-08T04:55:27.820Z,55.50
2018-12-08T05:00:31.010Z,55.60
2018-12-08T05:05:34.194Z,55.60
2018-12-08T05:10:37.534Z,55.60
2018-12-08T05:15:40.685Z,55.40
2018-12-08T05:20:43.953Z,55.50
2018-12-08T05:25:47.201Z,55.40
2018-12-08T05:30:50.923Z,55.40
2018-12-08T05:35:54.376Z,55.90
2018-12-08T05:40:57.572Z,55.60
2018-12-08T05:46:00.907Z,55.70
2018-12-08T05:51:04.166Z,56.10
2018-12-08T05:56:07.374Z,55.60
2018-12-08T06:01:10.591Z,55.10
2018-12-08T06:06:13.814Z,54.40
2018-12-08T06:11:17.035Z,53.90
2018-12-08T06:16:20.243Z,53.60
2018-12-08T06:21:33.581Z,54.00
2018-12-08T06:26:43.812Z,53.30
2018-12-08T06:31:47.660Z,52.20
2018-12-08T06:36:51.438Z,52.80
2018-12-08T06:41:54.602Z,52.50
2018-12-08T06:46:57.747Z,52.50
2018-12-08T06:52:01.018Z,52.50
2018-12-08T06:57:04.222Z,52.20
2018-12-08T07:02:07.459Z,52.20
2018-12-08T07:07:10.742Z,51.40
2018-12-08T07:12:13.973Z,50.80
2018-12-08T07:17:17.195Z,51.50
2018-12-08T07:22:20.476Z,51.70
2018-12-08T07:27:23.791Z,51.20
2018-12-08T07:32:27.067Z,51.40
2018-12-08T07:37:30.264Z,51.40
2018-12-08T07:42:33.521Z,51.10
2018-12-08T07:47:36.799Z,51.30
2018-12-08T07:52:39.994Z,50.90
2018-12-08T07:57:43.244Z,51.60
2018-12-08T08:02:46.705Z,51.40
2018-12-08T08:07:49.981Z,50.40
2018-12-08T08:12:53.269Z,50.70
2018-12-08T08:17:57.473Z,49.50
2018-12-08T08:23:00.961Z,50.60
2018-12-08T08:28:04.204Z,50.70
2018-12-08T08:33:07.463Z,50.30
2018-12-08T08:38:11.000Z,50.90
2018-12-08T08:43:14.223Z,50.40
2018-12-08T08:48:17.709Z,50.60
2018-12-08T08:53:21.265Z,50.60
2018-12-08T08:58:24.665Z,51.00
2018-12-08T09:03:27.853Z,50.60
2018-12-08T09:08:31.431Z,51.00
2018-12-08T09:13:34.985Z,51.00
2018-12-08T09:18:38.286Z,50.60
2018-12-08T09:23:41.547Z,50.50
2018-12-08T09:28:44.855Z,51.50
2018-12-08T09:33:48.082Z,52.20
2018-12-08T09:38:51.286Z,52.10
2018-12-08T09:43:54.463Z,52.50
2018-12-08T09:48:57.758Z,53.20
2018-12-08T09:54:01.315Z,53.20
2018-12-08T09:59:04.576Z,53.40
2018-12-08T10:04:08.216Z,53.70
2018-12-08T10:09:11.496Z,51.80
2018-12-08T10:14:14.838Z,53.20
2018-12-08T10:19:18.133Z,53.50
2018-12-08T10:24:21.673Z,54.30
2018-12-08T10:29:24.995Z,53.60
2018-12-08T10:34:28.317Z,53.30
2018-12-08T10:39:31.695Z,54.20
2018-12-08T10:44:34.939Z,54.60
2018-12-08T10:49:38.478Z,54.40
2018-12-08T10:54:42.015Z,54.70
2018-12-08T10:59:45.210Z,53.90
2018-12-08T11:04:48.599Z,54.70
2018-12-08T11:09:51.932Z,54.30
2018-12-08T11:15:00.659Z,52.80
2018-12-08T11:20:00.902Z,53.80
2018-12-08T11:25:04.374Z,54.30
2018-12-08T11:30:07.677Z,54.20
2018-12-08T11:35:10.955Z,54.20
2018-12-08T11:40:14.332Z,54.30
2018-12-08T11:45:17.562Z,54.30
2018-12-08T11:50:20.811Z,53.60
2018-12-08T11:55:30.199Z,53.90
2018-12-08T12:00:29.711Z,53.70
2018-12-08T12:05:32.947Z,54.20
2018-12-08T12:10:36.336Z,54.80
2018-12-08T12:15:39.622Z,54.90
2018-12-08T12:20:42.854Z,54.90
2018-12-08T12:25:46.267Z,55.00
2018-12-08T12:30:49.558Z,53.80
2018-12-08T12:35:52.832Z,53.80
2018-12-08T12:40:56.221Z,54.60
2018-12-08T12:45:59.597Z,54.40
2018-12-08T12:51:02.824Z,54.10
2018-12-08T12:56:06.196Z,54.80
2018-12-08T13:01:09.536Z,55.20
2018-12-08T13:06:14.139Z,55.10
2018-12-08T13:11:18.241Z,53.80
2018-12-08T13:16:22.195Z,54.60
2018-12-08T13:21:25.783Z,54.80
2018-12-08T13:26:29.133Z,54.60
2018-12-08T13:31:32.464Z,53.50
2018-12-08T13:36:35.894Z,55.00
2018-12-08T13:41:39.251Z,54.60
2018-12-08T13:46:42.825Z,54.80
2018-12-08T13:51:46.164Z,54.10
2018-12-08T13:56:49.467Z,54.80
2018-12-08T14:01:52.791Z,54.40
2018-12-08T14:06:56.045Z,54.90
2018-12-08T14:12:00.678Z,54.80
2018-12-08T14:17:04.421Z,54.60
2018-12-08T14:22:07.718Z,54.50
2018-12-08T14:27:10.989Z,54.60
2018-12-08T14:32:14.595Z,54.20
2018-12-08T14:37:18.011Z,54.10
2018-12-08T14:42:21.527Z,53.90
2018-12-08T14:47:24.881Z,54.40
2018-12-08T14:52:28.769Z,53.80
2018-12-08T14:57:32.064Z,54.50
2018-12-08T15:02:35.971Z,54.90
2018-12-08T15:07:39.304Z,54.00
2018-12-08T15:12:42.616Z,54.00
2018-12-08T15:17:46.378Z,54.50
2018-12-08T15:22:49.785Z,54.10
2018-12-08T15:27:53.262Z,54.70
2018-12-08T15:32:56.559Z,54.30
2018-12-08T15:38:00.054Z,54.50
2018-12-08T15:43:03.616Z,54.90
2018-12-08T15:48:07.111Z,55.20
2018-12-08T15:53:10.412Z,54.60
2018-12-08T15:58:14.402Z,54.80
2018-12-08T16:03:18.638Z,55.10
2018-12-08T16:08:21.903Z,54.70
2018-12-08T16:13:25.258Z,54.80
2018-12-08T16:18:28.777Z,55.10
2018-12-08T16:23:32.087Z,54.60
2018-12-08T16:28:35.364Z,55.00
2018-12-08T16:33:39.278Z,54.80
2018-12-08T16:38:42.627Z,55.40
2018-12-08T16:43:45.961Z,54.80
2018-12-08T16:48:49.437Z,54.50
2018-12-08T16:53:52.936Z,54.70
2018-12-08T16:58:56.401Z,55.10
2018-12-08T17:03:59.675Z,54.70
2018-12-08T17:09:03.067Z,54.40
2018-12-08T17:14:06.387Z,55.10
2018-12-08T17:19:09.695Z,55.00
2018-12-08T17:24:13.604Z,54.60
2018-12-08T17:29:17.099Z,54.80
2018-12-08T17:34:20.387Z,55.00
2018-12-08T17:39:23.809Z,55.20
2018-12-08T17:44:27.036Z,55.00
2018-12-08T17:49:30.531Z,55.00
2018-12-08T17:54:33.805Z,54.90
2018-12-08T17:59:37.147Z,55.00
2018-12-08T18:04:40.504Z,54.20
2018-12-08T18:09:44.005Z,54.90
2018-12-08T18:14:47.286Z,54.70
2018-12-08T18:19:50.530Z,55.20
2018-12-08T18:25:04.179Z,54.90
2018-12-08T18:30:12.038Z,54.80
2018-12-08T18:35:15.317Z,54.60
2018-12-08T18:40:18.586Z,55.30
2018-12-08T18:45:21.806Z,54.90
2018-12-08T18:50:25.171Z,54.70
2018-12-08T18:55:28.474Z,54.90
2018-12-08T19:00:31.782Z,55.10
2018-12-08T19:05:34.981Z,54.90
2018-12-08T19:10:38.582Z,54.70
2018-12-08T19:15:41.857Z,55.00
2018-12-08T19:20:45.092Z,54.80
2018-12-08T19:25:48.537Z,54.70
2018-12-08T19:30:51.815Z,54.70
2018-12-08T19:35:55.214Z,54.50
2018-12-08T19:40:58.489Z,54.50
2018-12-08T19:46:02.177Z,54.30
2018-12-08T19:51:05.437Z,54.00
2018-12-08T19:56:08.809Z,53.90
2018-12-08T20:01:12.113Z,54.40
2018-12-08T20:06:15.608Z,54.60
2018-12-08T20:11:18.942Z,54.70
2018-12-08T20:16:22.356Z,54.20
2018-12-08T20:21:25.615Z,54.10
2018-12-08T20:26:29.743Z,54.00
2018-12-08T20:31:33.021Z,53.50
2018-12-08T20:36:36.320Z,54.00
2018-12-08T20:41:39.598Z,54.00
2018-12-08T20:46:43.246Z,54.70
2018-12-08T20:51:46.500Z,54.80
2018-12-08T20:56:49.918Z,54.50
2018-12-08T21:01:53.514Z,53.90
2018-12-08T21:06:56.902Z,54.20
2018-12-08T21:12:00.342Z,53.90
2018-12-08T21:17:03.915Z,53.60
2018-12-08T21:22:07.710Z,53.50
2018-12-08T21:27:11.130Z,52.50
2018-12-08T21:32:15.009Z,53.70
2018-12-08T21:37:22.050Z,53.50
2018-12-08T21:42:25.520Z,53.20
2018-12-08T21:47:29.755Z,53.20
2018-12-08T21:52:35.994Z,52.80
2018-12-08T21:57:39.549Z,53.20
2018-12-08T22:02:42.926Z,53.00
2018-12-08T22:07:46.332Z,52.80
2018-12-08T22:12:49.762Z,52.30
2018-12-08T22:17:53.517Z,53.30
2018-12-08T22:22:56.783Z,52.60
2018-12-08T22:28:00.119Z,53.10
2018-12-08T22:33:03.374Z,53.60
2018-12-08T22:38:06.671Z,53.50
2018-12-08T22:43:10.185Z,53.20
2018-12-08T22:48:14.587Z,54.40
2018-12-08T22:53:17.838Z,53.80
2018-12-08T22:58:22.466Z,55.50
2018-12-08T23:03:25.714Z,54.40
2018-12-08T23:08:29.007Z,54.90
2018-12-08T23:13:32.247Z,54.60
2018-12-08T23:18:35.478Z,54.60
2018-12-08T23:23:38.754Z,54.50
2018-12-08T23:28:42.031Z,53.90
2018-12-08T23:33:45.285Z,53.80
2018-12-08T23:38:48.703Z,53.30
2018-12-08T23:43:52.083Z,52.50
2018-12-08T23:48:55.485Z,52.30
2018-12-08T23:53:58.668Z,52.20
2018-12-08T23:59:02.371Z,52.80
